Scappoose, Oregon
Current Conditions -  °F | °C
As of 1:53 AM on Friday 24 Oct 2014 (Local Time) from KSPB Reporting Station
Light Rain Light Rain  
Wind Chill: 51°   Ceiling: 6500
Heat Index: 51°   Visibility: 10mi
Dew Point: 49°   Wind: 6mph
Humidity: 92%   Direction: 100°E
Pressure: 30.02"   Gusts: NA
Location:  45.75°N, 122.88°W
Report Text: KSPB 240853Z AUTO 10005KT 10SM -RA BKN065 BKN085 OVC100 11/09 A3002 RMK AO2 RAE08B48 SLP166 P0000 60013 T01060094 51013
Loading
Personal Weather Stations






























Interactive Weather Map New forecast layout! Learn more

10-Day Weather Forecast

Advertisements
Track Severe Weather on mobile